createdAt,value
2022-09-03T00:04:05.066Z,60.72
2022-09-03T00:09:17.394Z,60.42
2022-09-03T00:14:29.245Z,60.42
2022-09-03T00:19:41.045Z,60.18
2022-09-03T00:24:50.360Z,59.93
2022-09-03T00:30:03.610Z,60.07
2022-09-03T00:35:18.151Z,60.62
2022-09-03T00:40:50.982Z,60.08
2022-09-03T00:46:07.460Z,60.52
2022-09-03T00:51:25.698Z,60.18
2022-09-03T00:56:41.602Z,60.27
2022-09-03T01:01:57.070Z,59.80
2022-09-03T01:07:14.800Z,60.18
2022-09-03T01:28:10.395Z,60.71
2022-09-03T01:33:27.700Z,60.99
2022-09-03T01:38:43.058Z,61.74
2022-09-03T01:43:59.489Z,61.86
2022-09-03T01:49:23.181Z,62.14
2022-09-03T01:54:45.622Z,62.06
2022-09-03T01:59:59.645Z,61.75
2022-09-03T02:05:10.061Z,61.91
2022-09-03T02:10:19.997Z,61.98
2022-09-03T02:15:31.294Z,62.09
2022-09-03T02:20:39.125Z,62.75
2022-09-03T02:25:50.121Z,63.02
2022-09-03T02:30:58.699Z,62.66
2022-09-03T02:36:08.407Z,63.11
2022-09-03T02:41:15.847Z,63.70
2022-09-03T02:46:28.008Z,63.60
2022-09-03T02:51:40.286Z,63.50
2022-09-03T02:56:50.228Z,63.87
2022-09-03T03:02:00.973Z,64.38
2022-09-03T03:07:08.812Z,64.92
2022-09-03T03:12:17.634Z,65.50
2022-09-03T03:17:25.060Z,66.35
2022-09-03T03:22:32.052Z,67.16
2022-09-03T03:27:40.283Z,68.10
2022-09-03T03:32:47.324Z,68.96
2022-09-03T03:37:54.474Z,69.64
2022-09-03T03:43:01.885Z,70.33
2022-09-03T03:48:08.824Z,71.19
2022-09-03T03:53:14.130Z,71.71
2022-09-03T03:58:21.022Z,72.52
2022-09-03T04:03:26.424Z,73.04
2022-09-03T04:08:36.562Z,73.34
2022-09-03T04:13:44.946Z,73.30
2022-09-03T04:18:52.335Z,72.83
2022-09-03T04:23:59.843Z,72.94
2022-09-03T04:29:08.730Z,72.17
2022-09-03T04:34:16.075Z,72.06
2022-09-03T04:39:23.237Z,72.27
2022-09-03T04:44:31.971Z,71.99
2022-09-03T04:49:40.442Z,72.03
2022-09-03T04:54:47.394Z,71.96
2022-09-03T04:59:52.767Z,72.12
2022-09-03T05:05:00.364Z,71.85
2022-09-03T05:10:09.645Z,72.76
2022-09-03T05:15:17.115Z,72.31
2022-09-03T05:20:23.863Z,72.92
2022-09-03T05:25:33.310Z,73.05
2022-09-03T05:30:40.193Z,73.26
2022-09-03T05:35:46.179Z,72.71
2022-09-03T05:40:53.429Z,72.73
2022-09-03T05:51:22.431Z,72.53
2022-09-03T05:56:30.908Z,72.87
2022-09-03T06:01:40.125Z,72.90
2022-09-03T06:06:48.836Z,73.23
2022-09-03T06:11:57.228Z,73.46
2022-09-03T06:17:04.467Z,73.27
2022-09-03T06:22:11.498Z,73.47
2022-09-03T06:27:20.814Z,73.77
2022-09-03T06:32:30.252Z,73.53
2022-09-03T06:37:42.229Z,73.93
2022-09-03T06:43:01.025Z,74.13
2022-09-03T06:48:10.302Z,74.07
2022-09-03T06:53:17.117Z,74.16
2022-09-03T06:58:23.575Z,74.77
2022-09-03T07:03:31.148Z,74.96
2022-09-03T07:08:38.761Z,75.25
2022-09-03T07:13:48.295Z,75.24
2022-09-03T07:18:56.209Z,75.08
2022-09-03T07:24:05.279Z,74.92
2022-09-03T07:29:13.324Z,74.43
2022-09-03T07:34:22.288Z,73.93
2022-09-03T07:39:29.613Z,73.59
2022-09-03T07:44:36.631Z,73.45
2022-09-03T07:49:43.510Z,73.51
2022-09-03T07:54:55.674Z,73.10
2022-09-03T08:00:02.777Z,72.82
2022-09-03T08:05:11.088Z,72.57
2022-09-03T08:10:18.008Z,72.47
2022-09-03T08:15:25.636Z,72.70
2022-09-03T08:20:33.785Z,72.73
2022-09-03T08:25:40.841Z,72.67
2022-09-03T08:30:47.837Z,72.60
2022-09-03T08:35:57.068Z,72.43
2022-09-03T08:41:16.479Z,71.78
2022-09-03T08:46:27.740Z,71.70
2022-09-03T08:51:40.746Z,71.56
2022-09-03T08:56:48.005Z,71.06
2022-09-03T09:02:01.626Z,70.86
2022-09-03T09:07:16.671Z,71.18
2022-09-03T09:12:42.855Z,70.73
2022-09-03T09:18:07.565Z,70.99
2022-09-03T09:23:21.479Z,70.43
2022-09-03T09:28:34.970Z,69.86
2022-09-03T09:33:41.859Z,69.88
2022-09-03T09:38:49.973Z,70.31
2022-09-03T09:44:05.618Z,70.34
2022-09-03T09:49:33.037Z,70.49
2022-09-03T09:54:40.347Z,70.25
2022-09-03T09:59:49.168Z,70.18
2022-09-03T10:04:59.034Z,70.10
2022-09-03T10:10:16.192Z,70.03
2022-09-03T10:15:33.355Z,69.78
2022-09-03T10:31:33.811Z,69.31
2022-09-03T10:36:47.591Z,69.19
2022-09-03T10:42:09.762Z,69.24
2022-09-03T10:47:33.326Z,68.79
2022-09-03T10:52:56.822Z,69.23
2022-09-03T10:58:17.174Z,69.09
2022-09-03T11:03:43.449Z,69.07
2022-09-03T11:09:04.434Z,68.27
2022-09-03T11:14:19.244Z,68.16
2022-09-03T11:19:35.400Z,68.01
2022-09-03T11:24:45.224Z,68.04
2022-09-03T11:30:00.751Z,68.20
2022-09-03T11:35:16.987Z,68.02
2022-09-03T11:40:30.255Z,67.87
2022-09-03T11:45:42.315Z,67.89
2022-09-03T11:50:57.404Z,67.26
2022-09-03T11:56:18.756Z,66.85
2022-09-03T12:01:28.957Z,66.66
2022-09-03T12:06:52.242Z,66.78
2022-09-03T12:12:14.144Z,66.42
2022-09-03T12:17:35.254Z,66.23
2022-09-03T12:22:43.287Z,66.72
2022-09-03T12:38:05.197Z,65.76
2022-09-03T12:43:46.212Z,64.91
2022-09-03T12:54:36.553Z,64.77
2022-09-03T12:59:45.253Z,64.56
2022-09-03T13:04:57.522Z,64.51
2022-09-03T13:10:22.354Z,63.89
2022-09-03T13:22:38.409Z,62.69
2022-09-03T13:28:16.617Z,62.07
2022-09-03T13:33:56.568Z,62.97
2022-09-03T13:39:42.383Z,63.05
2022-09-03T13:45:13.731Z,62.52
2022-09-03T13:51:12.431Z,62.74
2022-09-03T13:56:39.390Z,63.30
2022-09-03T14:02:27.324Z,62.30
2022-09-03T14:08:06.961Z,62.76
2022-09-03T14:13:44.556Z,62.67
2022-09-03T14:19:00.980Z,62.40
2022-09-03T14:24:32.114Z,62.83
2022-09-03T14:29:54.110Z,62.93
2022-09-03T14:35:33.851Z,63.03
2022-09-03T14:40:50.525Z,63.11
2022-09-03T14:46:33.425Z,62.90
2022-09-03T14:52:09.458Z,63.05
2022-09-03T14:57:43.119Z,63.14
2022-09-03T15:03:33.548Z,63.39
2022-09-03T15:08:55.316Z,63.27
2022-09-03T15:14:12.361Z,63.68
2022-09-03T15:19:30.770Z,63.93
2022-09-03T15:24:53.732Z,64.51
2022-09-03T15:30:22.387Z,64.44
2022-09-03T15:35:57.001Z,64.77
2022-09-03T15:47:04.173Z,64.46
2022-09-03T15:52:34.296Z,64.51
2022-09-03T15:57:54.683Z,64.39
2022-09-03T16:03:24.120Z,64.58
2022-09-03T16:08:47.809Z,64.83
2022-09-03T16:14:07.778Z,65.14
2022-09-03T16:19:20.516Z,65.34
2022-09-03T16:24:37.437Z,65.55
2022-09-03T16:29:56.593Z,65.55
2022-09-03T16:35:19.979Z,65.61
2022-09-03T16:40:41.565Z,65.67
2022-09-03T16:46:00.933Z,65.80
2022-09-03T16:51:21.863Z,65.75
2022-09-03T16:56:51.825Z,65.93
2022-09-03T17:02:40.097Z,65.91
2022-09-03T17:08:25.854Z,66.30
2022-09-03T17:14:08.622Z,66.31
2022-09-03T17:19:35.755Z,66.27
2022-09-03T17:24:56.486Z,66.00
2022-09-03T17:30:27.905Z,66.06
2022-09-03T17:35:45.685Z,66.38
2022-09-03T17:41:13.150Z,66.52
2022-09-03T17:46:38.561Z,66.56
2022-09-03T17:51:52.987Z,66.91
2022-09-03T17:57:21.577Z,66.80
2022-09-03T18:02:38.679Z,66.94
2022-09-03T18:07:56.303Z,67.01
2022-09-03T18:13:27.346Z,67.02
2022-09-03T18:18:48.259Z,66.99
2022-09-03T18:24:32.662Z,67.17
2022-09-03T18:30:09.737Z,67.45
2022-09-03T18:35:50.811Z,67.63
2022-09-03T18:42:17.396Z,67.91
2022-09-03T18:48:36.530Z,68.35
2022-09-03T18:54:17.040Z,68.49
2022-09-03T19:00:11.101Z,68.53
2022-09-03T19:05:51.016Z,68.96
2022-09-03T19:11:27.993Z,69.38
2022-09-03T19:17:16.294Z,69.47
2022-09-03T19:22:56.458Z,69.46
2022-09-03T19:28:34.134Z,69.73
2022-09-03T19:34:10.301Z,69.94
2022-09-03T19:39:50.613Z,70.15
2022-09-03T19:51:33.784Z,70.34
2022-09-03T19:57:07.808Z,70.21
2022-09-03T20:02:37.865Z,70.32
2022-09-03T20:08:19.820Z,70.32
2022-09-03T20:13:57.244Z,70.66
2022-09-03T20:19:38.189Z,70.78
2022-09-03T20:25:02.795Z,70.82
2022-09-03T20:30:19.274Z,71.02
2022-09-03T20:35:38.328Z,71.40
2022-09-03T20:41:03.339Z,71.26
2022-09-03T20:46:41.286Z,71.38
2022-09-03T20:52:14.339Z,71.59
2022-09-03T20:57:38.318Z,71.68
2022-09-03T21:03:16.603Z,71.78
2022-09-03T21:08:54.184Z,72.07
2022-09-03T21:14:29.201Z,72.34
2022-09-03T21:20:09.892Z,72.53
2022-09-03T21:25:47.021Z,72.55
2022-09-03T21:31:09.775Z,72.82
2022-09-03T21:36:22.885Z,73.43
2022-09-03T21:41:40.966Z,73.55
2022-09-03T21:46:56.662Z,73.98
2022-09-03T21:52:08.623Z,74.40
2022-09-03T21:57:27.494Z,74.48
2022-09-03T22:02:38.590Z,74.50
2022-09-03T22:08:02.615Z,74.32
2022-09-03T22:13:22.026Z,74.28
2022-09-03T22:18:38.161Z,74.74
2022-09-03T22:24:07.829Z,75.11
2022-09-03T22:29:23.375Z,75.06
2022-09-03T22:35:04.080Z,75.56
2022-09-03T22:40:19.693Z,75.85
2022-09-03T22:46:09.251Z,75.88
2022-09-03T22:51:22.697Z,75.84
2022-09-03T22:56:38.754Z,75.81
2022-09-03T23:01:50.817Z,76.23
2022-09-03T23:07:05.800Z,75.91
2022-09-03T23:12:19.961Z,75.77
2022-09-03T23:22:44.301Z,75.81
2022-09-03T23:28:08.741Z,75.78
2022-09-03T23:33:16.306Z,75.84
2022-09-03T23:38:31.772Z,76.07
2022-09-03T23:44:02.750Z,75.91
2022-09-03T23:49:30.765Z,75.85
2022-09-03T23:54:48.460Z,76.02
